createdAt,value
2022-11-17T00:01:09.166Z,6.79
2022-11-17T00:03:41.742Z,6.81
2022-11-17T00:06:11.854Z,6.82
2022-11-17T00:08:41.958Z,6.83
2022-11-17T00:11:12.128Z,6.75
2022-11-17T00:13:54.637Z,6.59
2022-11-17T00:16:25.576Z,6.49
2022-11-17T00:19:10.713Z,6.32
2022-11-17T00:21:40.770Z,6.29
2022-11-17T00:24:11.049Z,6.20
2022-11-17T00:27:01.649Z,6.18
2022-11-17T00:29:32.020Z,6.35
2022-11-17T00:32:14.755Z,6.48
2022-11-17T00:34:47.610Z,6.54
2022-11-17T00:37:19.084Z,6.60
2022-11-17T00:39:49.160Z,6.67
2022-11-17T00:42:19.344Z,6.70
2022-11-17T00:44:49.652Z,6.70
2022-11-17T00:47:19.768Z,6.88
2022-11-17T00:49:52.514Z,7.00
2022-11-17T00:52:22.709Z,7.07
2022-11-17T00:54:52.786Z,7.13
2022-11-17T00:57:22.809Z,7.14
2022-11-17T00:59:52.898Z,7.06
2022-11-17T01:02:22.939Z,7.15
2022-11-17T01:04:55.534Z,7.21
2022-11-17T01:07:26.061Z,7.24
2022-11-17T01:09:56.138Z,7.20
2022-11-17T01:12:26.159Z,7.26
2022-11-17T01:14:56.509Z,7.28
2022-11-17T01:17:27.668Z,7.22
2022-11-17T01:20:00.703Z,7.22
2022-11-17T01:22:30.755Z,7.22
2022-11-17T01:25:00.786Z,7.24
2022-11-17T01:27:30.877Z,7.22
2022-11-17T01:30:00.952Z,7.26
2022-11-17T01:32:31.150Z,7.18
2022-11-17T01:35:03.813Z,7.18
2022-11-17T01:37:34.084Z,7.23
2022-11-17T01:40:04.670Z,7.27
2022-11-17T01:42:34.661Z,7.21
2022-11-17T01:45:19.533Z,7.13
2022-11-17T01:47:55.427Z,7.22
2022-11-17T01:50:35.893Z,7.35
2022-11-17T01:53:11.415Z,7.47
2022-11-17T01:55:47.198Z,7.44
2022-11-17T01:58:23.908Z,7.32
2022-11-17T02:00:55.504Z,7.51
2022-11-17T02:03:28.752Z,7.57
2022-11-17T02:06:10.409Z,7.61
2022-11-17T02:08:45.218Z,7.67
2022-11-17T02:11:20.948Z,7.69
2022-11-17T02:13:55.977Z,7.73
2022-11-17T02:16:26.007Z,7.68
2022-11-17T02:18:56.214Z,7.72
2022-11-17T02:21:55.330Z,7.53
2022-11-17T02:25:02.474Z,7.38
2022-11-17T02:28:09.513Z,7.39
2022-11-17T02:30:56.648Z,7.24
2022-11-17T02:33:40.369Z,7.06
2022-11-17T02:36:19.602Z,6.97
2022-11-17T02:38:58.619Z,6.86
2022-11-17T02:41:37.728Z,6.78
2022-11-17T02:44:17.185Z,6.78
2022-11-17T02:46:51.358Z,6.66
2022-11-17T02:49:26.694Z,6.63
2022-11-17T02:52:01.360Z,6.63
2022-11-17T02:54:34.469Z,6.49
2022-11-17T02:57:04.771Z,6.42
2022-11-17T02:59:43.370Z,6.38
2022-11-17T03:03:07.426Z,6.46
2022-11-17T03:05:52.639Z,6.40
2022-11-17T03:08:36.086Z,6.45
2022-11-17T03:11:09.432Z,6.52
2022-11-17T03:13:52.045Z,6.62
2022-11-17T03:16:37.768Z,6.75
2022-11-17T03:19:19.305Z,6.83
2022-11-17T03:21:59.074Z,6.91
2022-11-17T03:24:34.098Z,7.04
2022-11-17T03:27:15.534Z,7.26
2022-11-17T03:29:52.716Z,7.36
2022-11-17T03:32:29.468Z,7.37
2022-11-17T03:35:06.204Z,7.40
2022-11-17T03:37:42.267Z,7.41
2022-11-17T03:40:19.571Z,7.49
2022-11-17T03:42:54.962Z,7.58
2022-11-17T03:45:30.673Z,7.64
2022-11-17T03:48:13.458Z,7.72
2022-11-17T03:50:52.191Z,7.71
2022-11-17T03:53:22.504Z,7.79
2022-11-17T03:56:04.969Z,7.80
2022-11-17T03:58:45.521Z,7.83
2022-11-17T04:01:17.170Z,7.89
2022-11-17T04:03:50.963Z,7.92
2022-11-17T04:06:21.234Z,7.94
2022-11-17T04:08:51.429Z,7.95
2022-11-17T04:11:33.963Z,7.96
2022-11-17T04:14:16.442Z,8.02
2022-11-17T04:16:46.504Z,8.07
2022-11-17T04:19:19.345Z,8.05
2022-11-17T04:21:49.341Z,8.09
2022-11-17T04:24:19.329Z,8.03
2022-11-17T04:27:01.881Z,8.12
2022-11-17T04:29:34.117Z,8.17
2022-11-17T04:32:04.203Z,8.22
2022-11-17T04:34:38.616Z,8.26
2022-11-17T04:37:17.405Z,8.20
2022-11-17T04:39:48.276Z,8.19
2022-11-17T04:42:15.669Z,8.28
2022-11-17T04:44:45.711Z,8.33
2022-11-17T04:47:15.723Z,8.36
2022-11-17T04:49:48.278Z,8.41
2022-11-17T04:52:18.274Z,8.44
2022-11-17T04:54:48.257Z,8.48
2022-11-17T04:57:18.265Z,8.53
2022-11-17T04:59:48.338Z,8.48
2022-11-17T05:02:18.400Z,8.56
2022-11-17T05:05:06.872Z,8.62
2022-11-17T05:07:36.953Z,8.56
2022-11-17T05:10:08.721Z,8.37
2022-11-17T05:12:51.191Z,8.51
2022-11-17T05:15:41.696Z,8.55
2022-11-17T05:18:09.148Z,8.49
2022-11-17T05:20:41.932Z,8.39
2022-11-17T05:23:24.384Z,8.34
2022-11-17T05:25:56.687Z,8.35
2022-11-17T05:28:27.225Z,8.38
2022-11-17T05:30:57.244Z,8.31
2022-11-17T05:33:27.215Z,8.34
2022-11-17T05:35:59.819Z,8.36
2022-11-17T05:38:29.817Z,8.41
2022-11-17T05:40:59.897Z,8.47
2022-11-17T05:43:29.889Z,8.49
2022-11-17T05:45:59.966Z,8.53
2022-11-17T05:48:30.160Z,8.54
2022-11-17T05:51:03.270Z,8.49
2022-11-17T05:53:34.503Z,8.43
2022-11-17T05:56:18.209Z,8.39
2022-11-17T05:58:53.792Z,8.41
2022-11-17T06:01:25.235Z,8.29
2022-11-17T06:03:59.831Z,8.06
2022-11-17T06:06:34.238Z,7.93
2022-11-17T06:09:04.500Z,7.79
2022-11-17T06:11:34.478Z,7.74
2022-11-17T06:14:04.682Z,7.68
2022-11-17T06:16:43.581Z,7.67
2022-11-17T06:19:23.499Z,7.75
2022-11-17T06:22:11.698Z,7.80
2022-11-17T06:24:43.552Z,7.89
2022-11-17T06:27:16.795Z,7.95
2022-11-17T06:29:48.445Z,7.94
2022-11-17T06:32:21.853Z,7.96
2022-11-17T06:34:56.025Z,7.92
2022-11-17T06:37:29.216Z,7.86
2022-11-17T06:39:59.221Z,7.91
2022-11-17T06:42:41.574Z,8.02
2022-11-17T06:45:13.256Z,8.00
2022-11-17T06:47:43.613Z,7.77
2022-11-17T06:50:13.881Z,7.63
2022-11-17T06:52:47.512Z,7.58
2022-11-17T06:55:18.426Z,7.67
2022-11-17T06:57:53.212Z,7.71
2022-11-17T07:00:24.268Z,7.80
2022-11-17T07:02:54.359Z,7.92
2022-11-17T07:05:24.335Z,8.06
2022-11-17T07:08:02.524Z,8.22
2022-11-17T07:10:34.744Z,8.49
2022-11-17T07:13:05.493Z,8.70
2022-11-17T07:15:35.521Z,8.82
2022-11-17T07:18:05.593Z,9.09
2022-11-17T07:20:35.619Z,9.08
2022-11-17T07:23:08.248Z,9.00
2022-11-17T07:25:38.296Z,8.96
2022-11-17T07:28:09.061Z,9.22
2022-11-17T07:30:39.122Z,9.37
2022-11-17T07:33:09.426Z,9.21
2022-11-17T07:35:39.858Z,9.24
2022-11-17T07:38:12.591Z,9.37
2022-11-17T07:40:43.058Z,9.36
2022-11-17T07:43:13.157Z,9.54
2022-11-17T07:45:43.662Z,9.58
2022-11-17T07:48:13.624Z,9.65
2022-11-17T07:50:43.623Z,9.66
2022-11-17T07:53:17.764Z,9.79
2022-11-17T07:55:48.012Z,9.84
2022-11-17T07:58:18.061Z,9.73
2022-11-17T08:00:48.352Z,9.79
2022-11-17T08:03:18.527Z,9.83
2022-11-17T08:05:48.597Z,9.94
2022-11-17T08:08:21.201Z,10.04
2022-11-17T08:10:51.300Z,10.04
2022-11-17T08:13:21.290Z,9.95
2022-11-17T08:15:51.330Z,10.16
2022-11-17T08:18:21.365Z,10.18
2022-11-17T08:20:51.970Z,10.27
2022-11-17T08:23:24.665Z,10.49
2022-11-17T08:25:54.754Z,10.83
2022-11-17T08:28:25.256Z,11.08
2022-11-17T08:30:55.947Z,11.34
2022-11-17T08:33:26.123Z,11.29
2022-11-17T08:35:59.553Z,11.27
2022-11-17T08:38:33.153Z,11.31
2022-11-17T08:41:07.211Z,11.27
2022-11-17T08:43:37.849Z,11.27
2022-11-17T08:46:08.407Z,11.43
2022-11-17T08:48:38.838Z,11.49
2022-11-17T08:51:11.419Z,11.41
2022-11-17T08:53:44.138Z,11.61
2022-11-17T08:56:16.004Z,11.63
2022-11-17T08:58:48.189Z,11.76
2022-11-17T09:01:19.774Z,11.73
2022-11-17T09:03:51.222Z,11.65
2022-11-17T09:06:21.235Z,11.77
2022-11-17T09:08:57.455Z,11.87
2022-11-17T09:11:27.826Z,12.20
2022-11-17T09:13:57.938Z,12.13
2022-11-17T09:16:28.011Z,12.18
2022-11-17T09:18:59.469Z,12.30
2022-11-17T09:21:29.873Z,12.52
2022-11-17T09:24:02.571Z,12.81
2022-11-17T09:26:32.681Z,12.83
2022-11-17T09:29:05.398Z,12.93
2022-11-17T09:31:35.779Z,12.94
2022-11-17T09:34:06.385Z,13.14
2022-11-17T09:36:37.314Z,13.15
2022-11-17T09:39:10.496Z,13.01
2022-11-17T09:41:45.319Z,13.22
2022-11-17T09:44:27.415Z,13.47
2022-11-17T09:47:06.378Z,13.79
2022-11-17T09:49:44.998Z,13.91
2022-11-17T09:52:21.732Z,14.37
2022-11-17T09:54:58.833Z,14.50
2022-11-17T09:57:34.055Z,14.36
2022-11-17T10:00:14.898Z,14.23
2022-11-17T10:02:46.004Z,13.84
2022-11-17T10:05:18.070Z,14.04
2022-11-17T10:07:53.515Z,13.77
2022-11-17T10:10:36.882Z,13.83
2022-11-17T10:13:14.548Z,13.41
2022-11-17T10:15:49.910Z,13.22
2022-11-17T10:18:20.529Z,13.11
2022-11-17T10:20:50.943Z,13.36
2022-11-17T10:23:22.976Z,13.31
2022-11-17T10:26:01.074Z,13.30
2022-11-17T10:28:33.800Z,13.14
2022-11-17T10:31:06.595Z,13.15
2022-11-17T10:33:39.676Z,13.07
2022-11-17T10:36:17.510Z,13.26
2022-11-17T10:38:49.190Z,13.47
2022-11-17T10:41:25.023Z,13.28
2022-11-17T10:44:03.972Z,13.35
2022-11-17T10:46:45.015Z,13.34
2022-11-17T10:49:28.219Z,13.27
2022-11-17T10:52:16.653Z,13.76
2022-11-17T10:54:49.858Z,13.84
2022-11-17T10:57:26.664Z,13.88
2022-11-17T10:59:59.403Z,13.83
2022-11-17T11:02:33.048Z,13.76
2022-11-17T11:05:11.785Z,13.70
2022-11-17T11:07:42.753Z,13.23
2022-11-17T11:10:19.727Z,12.84
2022-11-17T11:12:56.848Z,12.82
2022-11-17T11:15:31.017Z,12.73
2022-11-17T11:18:01.395Z,12.79
2022-11-17T11:20:41.990Z,12.90
2022-11-17T11:23:20.952Z,12.51
2022-11-17T11:25:58.023Z,12.58
2022-11-17T11:28:54.373Z,13.08
2022-11-17T11:31:34.651Z,13.59
2022-11-17T11:34:17.472Z,13.25
2022-11-17T11:36:53.321Z,13.02
2022-11-17T11:39:37.554Z,13.16
2022-11-17T11:42:23.924Z,13.00
2022-11-17T11:45:24.988Z,13.32
2022-11-17T11:48:16.610Z,13.83
2022-11-17T11:50:57.346Z,13.55
2022-11-17T11:53:47.077Z,13.32
2022-11-17T11:56:24.888Z,13.43
2022-11-17T11:59:01.831Z,13.24
2022-11-17T12:01:42.013Z,13.14
2022-11-17T12:04:27.841Z,13.44
2022-11-17T12:07:08.485Z,13.90
2022-11-17T12:09:58.285Z,14.13
2022-11-17T12:12:34.264Z,13.59
2022-11-17T12:15:33.254Z,14.13
2022-11-17T12:18:08.907Z,14.22
2022-11-17T12:20:56.816Z,14.63
2022-11-17T12:23:59.466Z,15.19
2022-11-17T12:26:31.209Z,14.85
2022-11-17T12:29:27.329Z,14.59
2022-11-17T12:31:58.537Z,14.44
2022-11-17T12:34:37.272Z,14.26
2022-11-17T12:37:31.847Z,14.57
2022-11-17T12:40:08.037Z,14.50
2022-11-17T12:42:39.475Z,14.86
2022-11-17T12:45:14.202Z,14.90
2022-11-17T12:48:04.992Z,14.68
2022-11-17T12:51:04.435Z,14.73
2022-11-17T12:53:43.985Z,14.53
2022-11-17T12:56:27.790Z,13.67
2022-11-17T12:59:24.616Z,13.84
2022-11-17T13:02:02.055Z,13.59
2022-11-17T13:04:39.271Z,13.72
2022-11-17T13:07:22.575Z,13.88
2022-11-17T13:09:54.591Z,13.70
2022-11-17T13:12:26.643Z,13.64
2022-11-17T13:14:58.635Z,13.54
2022-11-17T13:17:33.336Z,13.72
2022-11-17T13:20:06.654Z,14.06
2022-11-17T13:22:42.069Z,14.43
2022-11-17T13:25:23.750Z,14.51
2022-11-17T13:27:58.472Z,14.77
2022-11-17T13:30:33.758Z,14.47
2022-11-17T13:33:05.423Z,13.97
2022-11-17T13:35:38.123Z,13.92
2022-11-17T13:38:22.375Z,13.95
2022-11-17T13:40:55.041Z,13.93
2022-11-17T13:43:27.257Z,13.76
2022-11-17T13:45:58.193Z,13.91
2022-11-17T13:48:35.903Z,13.90
2022-11-17T13:51:39.256Z,14.16
2022-11-17T13:54:19.189Z,14.05
2022-11-17T13:56:55.010Z,13.89
2022-11-17T13:59:28.332Z,14.16
2022-11-17T14:02:25.720Z,14.28
2022-11-17T14:05:23.154Z,13.85
2022-11-17T14:07:54.701Z,13.74
2022-11-17T14:10:40.080Z,13.69
2022-11-17T14:13:26.392Z,13.49
2022-11-17T14:16:02.363Z,13.36
2022-11-17T14:18:36.994Z,13.23
2022-11-17T14:21:13.854Z,13.11
2022-11-17T14:23:45.137Z,12.85
2022-11-17T14:26:24.775Z,12.83
2022-11-17T14:29:02.014Z,12.67
2022-11-17T14:31:33.472Z,12.77
2022-11-17T14:34:05.852Z,12.70
2022-11-17T14:36:37.898Z,12.62
2022-11-17T14:39:18.153Z,12.69
2022-11-17T14:41:52.891Z,12.61
2022-11-17T14:44:23.816Z,12.55
2022-11-17T14:46:54.148Z,12.60
2022-11-17T14:49:24.497Z,12.46
2022-11-17T14:51:57.516Z,12.38
2022-11-17T14:54:29.073Z,12.29
2022-11-17T14:57:02.013Z,12.26
2022-11-17T14:59:32.433Z,12.14
2022-11-17T15:02:02.881Z,12.23
2022-11-17T15:04:50.181Z,12.25
2022-11-17T15:07:21.628Z,12.23
2022-11-17T15:09:52.355Z,12.30
2022-11-17T15:12:25.433Z,12.25
2022-11-17T15:14:57.540Z,12.24
2022-11-17T15:17:28.646Z,12.13
2022-11-17T15:19:59.198Z,12.13
2022-11-17T15:22:29.572Z,12.07
2022-11-17T15:25:00.112Z,12.03
2022-11-17T15:27:33.918Z,11.88
2022-11-17T15:30:04.560Z,11.82
2022-11-17T15:32:35.547Z,11.76
2022-11-17T15:35:06.335Z,11.75
2022-11-17T15:37:36.727Z,11.55
2022-11-17T15:40:07.985Z,11.45
2022-11-17T15:42:40.986Z,11.25
2022-11-17T15:45:12.497Z,11.17
2022-11-17T15:47:42.866Z,11.03
2022-11-17T15:50:13.522Z,11.01
2022-11-17T15:53:08.415Z,10.75
2022-11-17T15:55:36.037Z,10.51
2022-11-17T15:58:09.273Z,10.43
2022-11-17T16:00:40.388Z,10.24
2022-11-17T16:03:10.883Z,10.06
2022-11-17T16:05:41.394Z,10.07
2022-11-17T16:08:11.751Z,10.01
2022-11-17T16:10:42.309Z,9.90
2022-11-17T16:13:15.310Z,9.79
2022-11-17T16:15:45.728Z,9.75
2022-11-17T16:18:16.255Z,9.71
2022-11-17T16:20:47.796Z,9.68
2022-11-17T16:23:18.263Z,9.63
2022-11-17T16:25:50.743Z,9.55
2022-11-17T16:28:23.746Z,9.35
2022-11-17T16:30:54.252Z,9.28
2022-11-17T16:33:25.287Z,9.26
2022-11-17T16:35:55.802Z,9.23
2022-11-17T16:38:26.178Z,9.32
2022-11-17T16:40:56.541Z,9.34
2022-11-17T16:43:29.522Z,9.21
2022-11-17T16:45:59.960Z,9.08
2022-11-17T16:48:30.292Z,9.02
2022-11-17T16:51:00.717Z,9.04
2022-11-17T16:53:31.079Z,9.05
2022-11-17T16:56:06.405Z,9.01
2022-11-17T16:58:40.117Z,9.18
2022-11-17T17:01:15.014Z,9.42
2022-11-17T17:03:45.853Z,9.63
2022-11-17T17:06:18.745Z,9.86
2022-11-17T17:08:49.493Z,10.07
2022-11-17T17:11:20.197Z,10.21
2022-11-17T17:13:53.506Z,10.33
2022-11-17T17:16:24.120Z,10.44
2022-11-17T17:18:59.557Z,10.60
2022-11-17T17:21:31.761Z,10.80
2022-11-17T17:24:02.322Z,10.87
2022-11-17T17:26:34.826Z,10.73
2022-11-17T17:29:08.737Z,10.57
2022-11-17T17:31:42.414Z,10.41
2022-11-17T17:34:15.407Z,10.26
2022-11-17T17:36:45.855Z,10.24
2022-11-17T17:39:18.404Z,10.04
2022-11-17T17:41:48.879Z,10.13
2022-11-17T17:44:22.840Z,10.26
2022-11-17T17:46:53.228Z,10.34
2022-11-17T17:49:23.682Z,10.39
2022-11-17T17:51:54.117Z,10.44
2022-11-17T17:54:26.165Z,10.51
2022-11-17T17:56:57.814Z,10.60
2022-11-17T17:59:30.696Z,10.61
2022-11-17T18:02:01.187Z,10.66
2022-11-17T18:04:31.619Z,10.71
2022-11-17T18:07:03.269Z,10.62
2022-11-17T18:09:33.701Z,10.60
2022-11-17T18:12:04.164Z,10.72
2022-11-17T18:14:37.133Z,10.69
2022-11-17T18:17:10.644Z,10.76
2022-11-17T18:19:40.980Z,10.83
2022-11-17T18:22:11.372Z,10.92
2022-11-17T18:24:41.769Z,10.96
2022-11-17T18:27:12.122Z,11.00
2022-11-17T18:29:45.102Z,11.07
2022-11-17T18:32:15.502Z,11.06
2022-11-17T18:34:45.862Z,11.07
2022-11-17T18:37:16.201Z,11.05
2022-11-17T18:39:47.684Z,11.03
2022-11-17T18:42:18.105Z,10.99
2022-11-17T18:44:51.084Z,10.92
2022-11-17T18:47:21.543Z,10.84
2022-11-17T18:49:51.996Z,10.81
2022-11-17T18:52:27.128Z,10.75
2022-11-17T18:55:00.914Z,10.70
2022-11-17T18:57:31.273Z,10.63
2022-11-17T19:00:04.247Z,10.58
2022-11-17T19:02:35.484Z,10.51
2022-11-17T19:05:05.852Z,10.38
2022-11-17T19:07:36.038Z,10.37
2022-11-17T19:10:06.576Z,10.33
2022-11-17T19:12:36.821Z,10.29
2022-11-17T19:15:10.246Z,10.30
2022-11-17T19:17:40.476Z,10.48
2022-11-17T19:20:13.726Z,10.48
2022-11-17T19:22:43.997Z,10.49
2022-11-17T19:25:14.014Z,10.55
2022-11-17T19:27:44.435Z,10.59
2022-11-17T19:30:18.388Z,10.73
2022-11-17T19:32:48.460Z,10.70
2022-11-17T19:35:22.657Z,10.78
2022-11-17T19:37:53.242Z,10.78
2022-11-17T19:40:23.221Z,10.79
2022-11-17T19:42:53.469Z,10.77
2022-11-17T19:45:26.121Z,10.68
2022-11-17T19:47:56.410Z,10.62
2022-11-17T19:50:26.483Z,10.66
2022-11-17T19:52:56.652Z,10.58
2022-11-17T19:55:26.731Z,10.59
2022-11-17T19:57:57.059Z,10.55
2022-11-17T20:00:29.940Z,10.64
2022-11-17T20:03:00.087Z,10.48
2022-11-17T20:05:30.103Z,10.35
2022-11-17T20:08:00.392Z,10.22
2022-11-17T20:10:32.487Z,10.26
2022-11-17T20:13:02.943Z,9.85
2022-11-17T20:15:36.413Z,9.54
2022-11-17T20:18:06.666Z,9.21
2022-11-17T20:20:36.995Z,9.00
2022-11-17T20:23:08.620Z,8.71
2022-11-17T20:25:40.704Z,8.49
2022-11-17T20:28:11.003Z,8.50
2022-11-17T20:30:44.332Z,8.52
2022-11-17T20:33:14.375Z,8.41
2022-11-17T20:35:44.399Z,8.40
2022-11-17T20:38:15.851Z,8.50
2022-11-17T20:40:46.057Z,8.59
2022-11-17T20:43:16.029Z,8.62
2022-11-17T20:45:48.562Z,8.59
2022-11-17T20:48:18.599Z,8.49
2022-11-17T20:50:58.980Z,8.53
2022-11-17T20:53:29.517Z,8.52
2022-11-17T20:56:00.426Z,8.49
2022-11-17T20:58:32.146Z,8.49
2022-11-17T21:01:10.867Z,8.56
2022-11-17T21:03:41.434Z,8.57
2022-11-17T21:06:12.069Z,8.50
2022-11-17T21:08:45.321Z,8.46
2022-11-17T21:11:38.396Z,8.46
2022-11-17T21:14:11.479Z,8.38
2022-11-17T21:16:47.024Z,8.43
2022-11-17T21:19:17.786Z,8.42
2022-11-17T21:21:48.695Z,8.44
2022-11-17T21:24:19.001Z,8.50
2022-11-17T21:26:49.969Z,8.44
2022-11-17T21:29:20.177Z,8.44
2022-11-17T21:31:52.911Z,8.49
2022-11-17T21:34:22.900Z,8.41
2022-11-17T21:36:53.210Z,8.31
2022-11-17T21:39:23.268Z,8.43
2022-11-17T21:41:53.325Z,8.50
2022-11-17T21:44:23.379Z,8.50
2022-11-17T21:46:55.981Z,8.48
2022-11-17T21:49:25.990Z,8.47
2022-11-17T21:51:56.046Z,8.54
2022-11-17T21:54:26.092Z,8.42
2022-11-17T21:56:56.187Z,8.60
2022-11-17T21:59:26.308Z,8.62
2022-11-17T22:01:58.979Z,8.63
2022-11-17T22:04:29.043Z,8.57
2022-11-17T22:06:59.212Z,8.60
2022-11-17T22:09:29.274Z,8.57
2022-11-17T22:11:59.279Z,8.55
2022-11-17T22:14:29.310Z,8.45
2022-11-17T22:17:01.942Z,8.45
2022-11-17T22:19:33.731Z,8.45
2022-11-17T22:22:03.778Z,8.47
2022-11-17T22:24:33.804Z,8.42
2022-11-17T22:27:03.789Z,8.45
2022-11-17T22:29:33.818Z,8.45
2022-11-17T22:32:06.959Z,8.41
2022-11-17T22:34:36.967Z,8.32
2022-11-17T22:37:07.212Z,8.19
2022-11-17T22:39:38.616Z,8.10
2022-11-17T22:42:08.759Z,8.11
2022-11-17T22:44:38.840Z,8.10
2022-11-17T22:47:11.597Z,8.17
2022-11-17T22:49:41.615Z,8.16
2022-11-17T22:52:14.601Z,8.06
2022-11-17T22:54:44.608Z,8.05
2022-11-17T22:57:14.584Z,8.13
2022-11-17T22:59:44.635Z,8.14
2022-11-17T23:02:17.236Z,8.03
2022-11-17T23:04:47.768Z,8.00
2022-11-17T23:07:17.974Z,7.98
2022-11-17T23:09:48.062Z,7.82
2022-11-17T23:12:18.101Z,7.73
2022-11-17T23:14:48.181Z,7.62
2022-11-17T23:17:21.100Z,7.49
2022-11-17T23:19:51.783Z,7.43
2022-11-17T23:22:22.185Z,7.53
2022-11-17T23:24:52.209Z,7.49
2022-11-17T23:27:22.413Z,7.47
2022-11-17T23:29:52.624Z,7.59
2022-11-17T23:32:25.238Z,7.70
2022-11-17T23:34:55.341Z,7.74
2022-11-17T23:37:25.517Z,7.72
2022-11-17T23:39:55.586Z,7.66
2022-11-17T23:42:29.921Z,7.70
2022-11-17T23:45:02.199Z,7.69
2022-11-17T23:47:34.985Z,7.84
2022-11-17T23:50:05.024Z,7.92
2022-11-17T23:52:35.042Z,8.04
2022-11-17T23:55:05.093Z,8.11
2022-11-17T23:57:35.099Z,8.06
